createdAt,value
2022-10-25T00:01:49.375Z,8.75
2022-10-25T00:04:17.289Z,8.75
2022-10-25T00:06:44.255Z,8.18
2022-10-25T00:09:11.085Z,8.30
2022-10-25T00:11:37.835Z,7.53
2022-10-25T00:14:06.567Z,8.65
2022-10-25T00:16:36.629Z,8.45
2022-10-25T00:19:04.100Z,8.05
2022-10-25T00:21:31.849Z,9.00
2022-10-25T00:23:58.604Z,8.48
2022-10-25T00:26:25.412Z,7.60
2022-10-25T00:28:55.093Z,7.95
2022-10-25T00:31:22.753Z,9.02
2022-10-25T00:33:49.674Z,8.75
2022-10-25T00:36:22.504Z,8.68
2022-10-25T00:38:49.315Z,8.73
2022-10-25T00:41:22.181Z,9.23
2022-10-25T00:43:55.183Z,8.20
2022-10-25T00:46:23.211Z,8.82
2022-10-25T00:49:08.473Z,9.27
2022-10-25T00:51:40.928Z,8.48
2022-10-25T00:54:10.307Z,8.55
2022-10-25T00:56:40.422Z,8.60
2022-10-25T00:59:10.599Z,8.40
2022-10-25T01:01:38.185Z,8.88
2022-10-25T01:04:09.738Z,9.07
2022-10-25T01:06:42.094Z,9.10
2022-10-25T01:09:16.924Z,9.32
2022-10-25T01:11:43.663Z,9.90
2022-10-25T01:14:14.628Z,9.68
2022-10-25T01:16:54.182Z,9.43
2022-10-25T01:19:39.544Z,9.68
2022-10-25T01:22:11.674Z,9.68
2022-10-25T01:25:15.174Z,9.43
2022-10-25T01:28:02.207Z,9.20
2022-10-25T01:31:06.815Z,9.68
2022-10-25T01:33:39.270Z,9.05
2022-10-25T01:38:53.427Z,9.05
2022-10-25T01:41:28.907Z,9.30
2022-10-25T01:44:14.830Z,8.57
2022-10-25T01:47:08.484Z,8.50
2022-10-25T01:49:40.222Z,9.05
2022-10-25T01:54:34.023Z,10.20
2022-10-25T01:57:22.707Z,8.77
2022-10-25T02:00:10.490Z,9.38
2022-10-25T02:02:52.140Z,9.10
2022-10-25T02:05:27.584Z,8.55
2022-10-25T02:08:10.186Z,8.18
2022-10-25T02:11:05.303Z,6.65
2022-10-25T02:13:40.889Z,4.38
2022-10-25T02:16:39.801Z,2.28
2022-10-25T02:19:09.454Z,2.20
2022-10-25T02:21:37.515Z,1.70
2022-10-25T02:24:09.710Z,2.38
2022-10-25T02:26:38.016Z,2.80
2022-10-25T02:29:07.146Z,2.90
2022-10-25T02:31:36.526Z,2.28
2022-10-25T02:34:03.818Z,1.80
2022-10-25T02:36:30.839Z,1.40
2022-10-25T02:38:59.390Z,0.90
2022-10-25T02:41:26.261Z,0.88
2022-10-25T02:43:53.064Z,0.90
2022-10-25T02:46:22.012Z,0.60
2022-10-25T02:48:49.835Z,0.80
2022-10-25T02:51:18.286Z,0.40
2022-10-25T02:53:45.192Z,0.40
2022-10-25T02:56:20.810Z,0.40
2022-10-25T02:58:48.942Z,0.40
2022-10-25T03:01:17.881Z,0.40
2022-10-25T03:03:45.186Z,0.45
2022-10-25T03:06:12.869Z,0.30
2022-10-25T03:08:40.843Z,0.38
2022-10-25T03:11:08.595Z,0.50
2022-10-25T03:13:35.683Z,0.30
2022-10-25T03:16:03.072Z,0.52
2022-10-25T03:18:29.977Z,0.50
2022-10-25T03:20:58.756Z,0.60
2022-10-25T03:23:26.154Z,0.60
2022-10-25T03:25:54.398Z,0.80
2022-10-25T03:28:21.778Z,0.52
2022-10-25T03:30:48.890Z,1.00
2022-10-25T03:33:16.174Z,0.60
2022-10-25T03:35:42.968Z,0.60
2022-10-25T03:38:09.757Z,0.63
2022-10-25T03:40:36.678Z,0.70
2022-10-25T03:43:03.482Z,0.65
2022-10-25T03:45:30.276Z,0.73
2022-10-25T03:47:57.026Z,0.68
2022-10-25T03:50:23.745Z,0.90
2022-10-25T03:52:50.577Z,1.23
2022-10-25T03:55:17.408Z,1.00
2022-10-25T03:57:44.456Z,1.27
2022-10-25T04:00:11.884Z,1.15
2022-10-25T04:02:38.898Z,1.05
2022-10-25T04:05:06.391Z,1.02
2022-10-25T04:07:33.229Z,1.10
2022-10-25T04:09:59.961Z,0.95
2022-10-25T04:12:26.678Z,1.08
2022-10-25T04:14:53.455Z,0.80
2022-10-25T04:17:20.205Z,0.90
2022-10-25T04:19:46.978Z,0.73
2022-10-25T04:22:13.788Z,1.10
2022-10-25T04:24:40.545Z,1.10
2022-10-25T04:27:07.265Z,1.00
2022-10-25T04:29:34.049Z,1.27
2022-10-25T04:32:00.815Z,2.28
2022-10-25T04:34:27.598Z,1.83
2022-10-25T04:36:54.314Z,1.05
2022-10-25T04:39:21.099Z,1.10
2022-10-25T04:41:47.830Z,1.27
2022-10-25T04:44:14.628Z,1.25
2022-10-25T04:46:45.053Z,1.35
2022-10-25T04:49:15.035Z,1.10
2022-10-25T04:51:41.866Z,0.80
2022-10-25T04:54:08.674Z,1.40
2022-10-25T04:56:35.412Z,1.60
2022-10-25T04:59:02.193Z,1.80
2022-10-25T05:01:29.057Z,1.27
2022-10-25T05:03:56.121Z,1.67
2022-10-25T05:06:26.798Z,2.08
2022-10-25T05:08:54.208Z,1.60
2022-10-25T05:11:24.125Z,2.08
2022-10-25T05:13:51.094Z,1.60
2022-10-25T05:16:22.798Z,2.10
2022-10-25T05:18:56.972Z,2.00
2022-10-25T05:21:30.332Z,2.15
2022-10-25T05:24:01.477Z,1.80
2022-10-25T05:26:29.737Z,1.73
2022-10-25T05:28:56.996Z,1.40
2022-10-25T05:31:29.179Z,1.70
2022-10-25T05:33:59.716Z,1.30
2022-10-25T05:36:29.350Z,1.63
2022-10-25T05:38:56.361Z,1.67
2022-10-25T05:41:23.388Z,1.58
2022-10-25T05:43:50.137Z,1.75
2022-10-25T05:46:25.857Z,1.75
2022-10-25T05:48:53.651Z,1.30
2022-10-25T05:51:38.795Z,1.42
2022-10-25T05:54:08.146Z,2.03
2022-10-25T05:56:36.018Z,1.70
2022-10-25T05:59:09.066Z,1.85
2022-10-25T06:01:41.148Z,1.60
2022-10-25T06:04:09.007Z,1.50
2022-10-25T06:06:37.096Z,2.00
2022-10-25T06:09:04.115Z,1.77
2022-10-25T06:11:32.791Z,2.00
2022-10-25T06:13:59.718Z,2.03
2022-10-25T06:16:26.610Z,1.17
2022-10-25T06:18:54.544Z,1.45
2022-10-25T06:21:24.286Z,2.60
2022-10-25T06:23:52.048Z,1.88
2022-10-25T06:26:21.784Z,2.40
2022-10-25T06:28:51.342Z,1.70
2022-10-25T06:31:19.328Z,2.03
2022-10-25T06:33:46.847Z,2.13
2022-10-25T06:36:16.874Z,2.00
2022-10-25T06:38:45.325Z,2.38
2022-10-25T06:41:17.594Z,1.73
2022-10-25T06:43:44.660Z,1.77
2022-10-25T06:46:22.500Z,2.13
2022-10-25T06:48:50.509Z,2.20
2022-10-25T06:51:17.792Z,1.90
2022-10-25T06:53:44.960Z,2.35
2022-10-25T06:56:14.659Z,1.88
2022-10-25T06:58:42.078Z,2.40
2022-10-25T07:01:12.761Z,2.35
2022-10-25T07:03:40.231Z,2.10
2022-10-25T07:06:19.211Z,1.80
2022-10-25T07:08:47.307Z,1.80
2022-10-25T07:11:16.452Z,2.45
2022-10-25T07:13:43.389Z,1.60
2022-10-25T07:16:13.187Z,1.40
2022-10-25T07:18:39.961Z,1.83
2022-10-25T07:21:10.435Z,1.77
2022-10-25T07:23:43.139Z,1.80
2022-10-25T07:26:11.477Z,1.60
2022-10-25T07:28:38.863Z,1.30
2022-10-25T07:31:06.834Z,1.05
2022-10-25T07:33:33.978Z,1.27
2022-10-25T07:36:11.239Z,1.70
2022-10-25T07:38:38.518Z,1.30
2022-10-25T07:41:05.932Z,1.33
2022-10-25T07:43:32.745Z,1.70
2022-10-25T07:45:59.596Z,1.60
2022-10-25T07:48:26.697Z,1.60
2022-10-25T07:50:53.625Z,1.70
2022-10-25T07:53:20.522Z,1.92
2022-10-25T07:55:51.946Z,2.42
2022-10-25T07:58:19.270Z,2.17
2022-10-25T08:00:46.240Z,1.85
2022-10-25T08:03:14.692Z,1.63
2022-10-25T08:05:44.574Z,1.38
2022-10-25T08:08:11.974Z,0.80
2022-10-25T08:10:39.032Z,1.23
2022-10-25T08:13:06.006Z,1.05
2022-10-25T08:15:32.783Z,1.10
2022-10-25T08:18:00.803Z,1.40
2022-10-25T08:20:43.286Z,1.40
2022-10-25T08:23:15.118Z,1.38
2022-10-25T08:25:42.456Z,1.83
2022-10-25T08:28:09.688Z,1.73
2022-10-25T08:30:36.840Z,1.60
2022-10-25T08:33:03.864Z,1.63
2022-10-25T08:35:30.586Z,1.60
2022-10-25T08:38:01.051Z,1.95
2022-10-25T08:40:49.585Z,1.60
2022-10-25T08:43:42.224Z,1.60
2022-10-25T08:46:23.444Z,1.30
2022-10-25T08:49:01.459Z,1.45
2022-10-25T08:51:34.569Z,1.48
2022-10-25T08:54:06.407Z,1.73
2022-10-25T08:59:03.739Z,1.38
2022-10-25T09:01:52.782Z,1.42
2022-10-25T09:04:20.574Z,1.75
2022-10-25T09:06:57.858Z,1.95
2022-10-25T09:10:06.164Z,1.60
2022-10-25T09:12:58.662Z,1.80
2022-10-25T09:15:46.516Z,1.63
2022-10-25T09:18:17.878Z,2.00
2022-10-25T09:20:50.119Z,1.85
2022-10-25T09:23:32.940Z,1.50
2022-10-25T09:26:05.654Z,1.40
2022-10-25T09:29:15.998Z,1.80
2022-10-25T09:31:51.149Z,2.00
2022-10-25T09:34:20.420Z,2.50
2022-10-25T09:36:49.228Z,3.03
2022-10-25T09:39:37.474Z,4.00
2022-10-25T09:42:07.528Z,4.15
2022-10-25T09:44:45.357Z,4.22
2022-10-25T09:47:25.984Z,5.22
2022-10-25T09:50:05.618Z,4.78
2022-10-25T09:52:57.152Z,4.82
2022-10-25T09:55:48.039Z,4.63
2022-10-25T09:58:27.665Z,4.55
2022-10-25T10:00:57.560Z,4.93
2022-10-25T10:03:29.040Z,4.47
2022-10-25T10:06:00.461Z,5.00
2022-10-25T10:08:28.433Z,4.97
2022-10-25T10:10:56.406Z,5.20
2022-10-25T10:14:03.886Z,5.38
2022-10-25T10:16:54.998Z,4.82
2022-10-25T10:19:29.901Z,3.92
2022-10-25T10:22:17.415Z,4.40
2022-10-25T10:24:47.978Z,4.00
2022-10-25T10:27:20.675Z,4.28
2022-10-25T10:29:56.572Z,4.50
2022-10-25T10:32:27.651Z,3.72
2022-10-25T10:34:57.593Z,4.28
2022-10-25T10:37:34.479Z,4.18
2022-10-25T10:40:08.152Z,4.70
2022-10-25T10:42:37.050Z,3.85
2022-10-25T10:45:03.740Z,4.03
2022-10-25T10:47:35.148Z,4.13
2022-10-25T10:50:09.453Z,4.50
2022-10-25T10:52:42.208Z,4.47
2022-10-25T10:55:39.606Z,4.80
2022-10-25T10:58:07.934Z,5.30
2022-10-25T11:00:35.325Z,4.75
2022-10-25T11:03:02.122Z,5.07
2022-10-25T11:05:30.811Z,4.85
2022-10-25T11:08:00.535Z,6.53
2022-10-25T11:10:35.179Z,6.47
2022-10-25T11:13:19.369Z,5.68
2022-10-25T11:15:48.833Z,5.53
2022-10-25T11:18:17.125Z,4.50
2022-10-25T11:20:54.388Z,6.68
2022-10-25T11:23:36.531Z,4.78
2022-10-25T11:26:33.475Z,3.65
2022-10-25T11:29:35.038Z,3.97
2022-10-25T11:32:10.366Z,4.28
2022-10-25T11:34:56.219Z,3.10
2022-10-25T11:37:36.453Z,3.60
2022-10-25T11:40:09.011Z,4.18
2022-10-25T11:43:03.532Z,4.43
2022-10-25T11:45:45.461Z,3.90
2022-10-25T11:48:27.306Z,4.13
2022-10-25T11:53:53.872Z,3.50
2022-10-25T11:56:41.981Z,4.10
2022-10-25T11:59:26.470Z,6.07
2022-10-25T12:02:04.369Z,6.70
2022-10-25T12:04:39.469Z,5.18
2022-10-25T12:07:27.397Z,3.97
2022-10-25T12:10:01.584Z,4.53
2022-10-25T12:12:56.269Z,6.00
2022-10-25T12:15:29.941Z,5.30
2022-10-25T12:17:56.725Z,4.60
2022-10-25T12:20:27.386Z,4.97
2022-10-25T12:22:58.013Z,5.03
2022-10-25T12:25:36.816Z,6.65
2022-10-25T12:28:18.497Z,7.05
2022-10-25T12:30:46.288Z,7.95
2022-10-25T12:33:24.880Z,6.75
2022-10-25T12:35:58.604Z,6.20
2022-10-25T12:38:35.349Z,6.20
2022-10-25T12:41:24.497Z,6.43
2022-10-25T12:44:05.947Z,7.00
2022-10-25T12:46:44.705Z,6.43
2022-10-25T12:49:17.299Z,6.30
2022-10-25T12:52:21.345Z,6.00
2022-10-25T12:55:14.546Z,5.53
2022-10-25T12:58:02.465Z,6.32
2022-10-25T13:00:57.546Z,6.78
2022-10-25T13:03:45.519Z,7.93
2022-10-25T13:06:18.460Z,7.90
2022-10-25T13:08:45.551Z,7.55
2022-10-25T13:11:12.894Z,8.93
2022-10-25T13:13:47.819Z,9.40
2022-10-25T13:16:27.855Z,8.85
2022-10-25T13:19:35.896Z,8.60
2022-10-25T13:22:11.985Z,8.52
2022-10-25T13:24:42.653Z,8.88
2022-10-25T13:27:15.344Z,9.37
2022-10-25T13:30:03.921Z,8.38
2022-10-25T13:32:33.545Z,8.15
2022-10-25T13:35:02.249Z,6.90
2022-10-25T13:37:31.854Z,7.10
2022-10-25T13:40:03.282Z,6.38
2022-10-25T13:42:34.144Z,5.85
2022-10-25T13:45:08.491Z,5.20
2022-10-25T13:47:39.996Z,5.55
2022-10-25T13:53:14.651Z,5.30
2022-10-25T13:55:59.803Z,5.60
2022-10-25T13:58:31.621Z,7.22
2022-10-25T14:01:19.175Z,4.85
2022-10-25T14:04:14.063Z,4.70
2022-10-25T14:06:42.419Z,5.32
2022-10-25T14:09:33.967Z,5.28
2022-10-25T14:12:06.567Z,4.80
2022-10-25T14:15:02.189Z,4.43
2022-10-25T14:17:42.066Z,4.38
2022-10-25T14:20:31.075Z,4.43
2022-10-25T14:23:15.824Z,4.95
2022-10-25T14:25:55.607Z,4.97
2022-10-25T14:28:30.928Z,4.47
2022-10-25T14:31:03.533Z,4.22
2022-10-25T14:33:52.148Z,4.63
2022-10-25T14:36:29.771Z,4.53
2022-10-25T14:39:04.590Z,4.25
2022-10-25T14:41:33.982Z,4.68
2022-10-25T14:44:02.173Z,4.35
2022-10-25T14:46:30.459Z,4.20
2022-10-25T14:48:59.547Z,3.80
2022-10-25T14:51:33.927Z,4.70
2022-10-25T14:54:06.315Z,4.40
2022-10-25T14:56:40.887Z,3.78
2022-10-25T14:59:19.214Z,3.60
2022-10-25T15:02:05.127Z,3.75
2022-10-25T15:04:39.946Z,3.60
2022-10-25T15:07:15.321Z,3.97
2022-10-25T15:09:49.502Z,3.60
2022-10-25T15:12:26.884Z,3.65
2022-10-25T15:14:56.094Z,3.65
2022-10-25T15:17:22.820Z,4.32
2022-10-25T15:20:11.664Z,4.50
2022-10-25T15:22:38.399Z,4.10
2022-10-25T15:25:20.492Z,3.65
2022-10-25T15:27:48.260Z,3.63
2022-10-25T15:30:57.509Z,3.00
2022-10-25T15:33:30.310Z,3.30
2022-10-25T15:35:59.785Z,3.78
2022-10-25T15:38:41.924Z,3.72
2022-10-25T15:41:14.882Z,3.20
2022-10-25T15:43:41.689Z,3.13
2022-10-25T15:46:23.275Z,3.42
2022-10-25T15:48:50.138Z,3.20
2022-10-25T15:51:17.744Z,3.28
2022-10-25T15:53:44.544Z,4.72
2022-10-25T15:56:20.748Z,4.10
2022-10-25T15:58:48.356Z,4.43
2022-10-25T16:01:15.401Z,4.53
2022-10-25T16:03:42.350Z,4.65
2022-10-25T16:06:13.081Z,4.80
2022-10-25T16:08:40.357Z,4.63
2022-10-25T16:11:16.651Z,5.15
2022-10-25T16:13:45.667Z,4.97
2022-10-25T16:16:40.467Z,4.95
2022-10-25T16:19:19.491Z,5.07
2022-10-25T16:21:46.372Z,4.97
2022-10-25T16:24:13.409Z,4.80
2022-10-25T16:26:46.240Z,5.25
2022-10-25T16:29:24.696Z,5.45
2022-10-25T16:31:51.797Z,5.30
2022-10-25T16:34:19.705Z,5.28
2022-10-25T16:36:47.923Z,5.93
2022-10-25T16:39:15.195Z,5.22
2022-10-25T16:41:46.670Z,6.03
2022-10-25T16:44:16.000Z,6.43
2022-10-25T16:46:43.129Z,6.35
2022-10-25T16:49:09.878Z,6.40
2022-10-25T16:51:38.043Z,6.40
2022-10-25T16:54:05.032Z,6.45
2022-10-25T16:56:31.931Z,6.28
2022-10-25T16:58:58.749Z,6.90
2022-10-25T17:01:34.558Z,6.53
2022-10-25T17:04:02.905Z,7.78
2022-10-25T17:06:41.823Z,7.32
2022-10-25T17:09:10.122Z,6.72
2022-10-25T17:11:36.856Z,7.22
2022-10-25T17:14:04.115Z,6.97
2022-10-25T17:16:31.009Z,7.97
2022-10-25T17:18:57.733Z,8.35
2022-10-25T17:21:24.594Z,8.77
2022-10-25T17:23:51.359Z,7.85
2022-10-25T17:26:18.092Z,7.85
2022-10-25T17:28:44.984Z,8.50
2022-10-25T17:31:13.709Z,7.90
2022-10-25T17:33:41.796Z,8.77
2022-10-25T17:36:13.484Z,8.63
2022-10-25T17:38:40.802Z,8.43
2022-10-25T17:41:08.614Z,8.70
2022-10-25T17:43:37.126Z,8.05
2022-10-25T17:46:07.363Z,9.00
2022-10-25T17:48:34.291Z,9.80
2022-10-25T17:51:03.002Z,8.82
2022-10-25T17:53:30.010Z,8.45
2022-10-25T17:55:56.914Z,9.60
2022-10-25T17:58:23.675Z,10.40
2022-10-25T18:00:50.657Z,11.18
2022-10-25T18:03:17.449Z,9.93
2022-10-25T18:05:44.185Z,10.73
2022-10-25T18:08:11.174Z,10.27
2022-10-25T18:10:37.893Z,11.57
2022-10-25T18:13:04.689Z,10.73
2022-10-25T18:15:33.332Z,11.82
2022-10-25T18:18:00.145Z,11.25
2022-10-25T18:20:26.885Z,12.45
2022-10-25T18:22:55.471Z,11.05
2022-10-25T18:25:22.248Z,12.18
2022-10-25T18:27:49.348Z,10.43
2022-10-25T18:30:16.415Z,11.13
2022-10-25T18:32:43.145Z,11.80
2022-10-25T18:35:10.119Z,11.55
2022-10-25T18:37:36.919Z,12.10
2022-10-25T18:40:04.332Z,12.15
2022-10-25T18:42:31.185Z,11.02
2022-10-25T18:44:58.051Z,11.38
2022-10-25T18:47:24.812Z,11.57
2022-10-25T18:49:51.635Z,11.73
2022-10-25T18:52:18.421Z,11.63
2022-10-25T18:54:45.176Z,11.77
2022-10-25T18:57:13.380Z,12.45
2022-10-25T18:59:40.198Z,11.85
2022-10-25T19:02:07.175Z,12.07
2022-10-25T19:04:34.059Z,11.50
2022-10-25T19:07:00.811Z,12.05
2022-10-25T19:09:27.585Z,12.07
2022-10-25T19:11:54.702Z,12.95
2022-10-25T19:14:21.536Z,12.32
2022-10-25T19:16:48.294Z,13.23
2022-10-25T19:19:15.028Z,13.35
2022-10-25T19:21:42.965Z,13.52
2022-10-25T19:24:13.994Z,13.23
2022-10-25T19:26:41.804Z,14.85
2022-10-25T19:29:09.514Z,13.57
2022-10-25T19:31:36.247Z,13.65
2022-10-25T19:34:03.250Z,14.55
2022-10-25T19:36:30.455Z,12.77
2022-10-25T19:38:57.366Z,13.18
2022-10-25T19:41:25.836Z,13.10
2022-10-25T19:43:53.367Z,13.38
2022-10-25T19:46:20.067Z,14.93
2022-10-25T19:48:47.070Z,13.23
2022-10-25T19:51:22.573Z,14.68
2022-10-25T19:53:49.372Z,13.55
2022-10-25T19:56:18.411Z,14.85
2022-10-25T19:58:45.529Z,15.93
2022-10-25T20:01:15.699Z,13.30
2022-10-25T20:03:44.236Z,15.02
2022-10-25T20:06:17.493Z,15.27
2022-10-25T20:08:47.343Z,16.58
2022-10-25T20:11:15.588Z,15.30
2022-10-25T20:13:42.439Z,16.15
2022-10-25T20:16:10.125Z,16.92
2022-10-25T20:18:39.041Z,16.58
2022-10-25T20:21:11.257Z,16.60
2022-10-25T20:23:39.214Z,16.25
2022-10-25T20:26:23.592Z,16.65
2022-10-25T20:28:55.799Z,15.35
2022-10-25T20:31:25.100Z,16.40
2022-10-25T20:33:52.853Z,15.60
2022-10-25T20:36:19.892Z,15.23
2022-10-25T20:38:47.004Z,16.58
2022-10-25T20:41:19.056Z,14.88
2022-10-25T20:43:48.163Z,15.95
2022-10-25T20:46:15.777Z,13.75
2022-10-25T20:48:42.968Z,15.85
2022-10-25T20:51:11.443Z,13.88
2022-10-25T20:53:40.257Z,15.07
2022-10-25T20:56:07.204Z,14.85
2022-10-25T20:58:34.978Z,14.75
2022-10-25T21:01:02.309Z,15.10
2022-10-25T21:03:31.113Z,16.05
2022-10-25T21:06:00.003Z,16.73
2022-10-25T21:08:27.245Z,17.50
2022-10-25T21:10:58.912Z,17.65
2022-10-25T21:13:27.370Z,15.73
2022-10-25T21:15:54.209Z,16.98
2022-10-25T21:18:21.653Z,15.15
2022-10-25T21:20:49.104Z,14.77
2022-10-25T21:23:15.813Z,14.93
2022-10-25T21:25:42.543Z,15.05
2022-10-25T21:28:09.469Z,15.32
2022-10-25T21:30:36.235Z,14.13
2022-10-25T21:33:04.360Z,14.45
2022-10-25T21:35:32.484Z,13.65
2022-10-25T21:38:07.867Z,13.00
2022-10-25T21:40:35.143Z,12.48
2022-10-25T21:43:01.939Z,12.65
2022-10-25T21:45:28.701Z,12.98
2022-10-25T21:47:55.462Z,12.80
2022-10-25T21:50:22.257Z,12.38
2022-10-25T21:52:49.053Z,12.18
2022-10-25T21:55:15.871Z,11.40
2022-10-25T21:57:42.595Z,11.90
2022-10-25T22:00:11.088Z,10.93
2022-10-25T22:02:38.004Z,11.13
2022-10-25T22:05:05.168Z,12.68
2022-10-25T22:07:31.905Z,10.85
2022-10-25T22:09:58.592Z,10.95
2022-10-25T22:12:25.309Z,10.43
2022-10-25T22:14:52.049Z,12.63
2022-10-25T22:17:18.814Z,11.70
2022-10-25T22:19:45.520Z,11.50
2022-10-25T22:22:12.313Z,10.82
2022-10-25T22:24:39.037Z,10.52
2022-10-25T22:27:05.754Z,10.98
2022-10-25T22:29:32.475Z,11.70
2022-10-25T22:31:59.229Z,11.23
2022-10-25T22:34:27.709Z,12.38
2022-10-25T22:36:54.494Z,13.77
2022-10-25T22:39:21.234Z,12.27
2022-10-25T22:41:51.464Z,12.85
2022-10-25T22:44:18.291Z,12.65
2022-10-25T22:46:45.090Z,13.18
2022-10-25T22:49:11.794Z,12.68
2022-10-25T22:51:39.043Z,12.98
2022-10-25T22:54:06.337Z,13.55
2022-10-25T22:56:33.796Z,14.00
2022-10-25T22:59:02.763Z,13.02
2022-10-25T23:01:37.757Z,13.68
2022-10-25T23:04:07.634Z,14.25
2022-10-25T23:06:37.853Z,13.73
2022-10-25T23:09:07.088Z,13.13
2022-10-25T23:11:36.150Z,12.75
2022-10-25T23:14:03.625Z,12.35
2022-10-25T23:16:30.633Z,12.73
2022-10-25T23:18:57.690Z,12.40
2022-10-25T23:21:26.761Z,12.43
2022-10-25T23:23:56.508Z,10.48
2022-10-25T23:26:34.657Z,11.30
2022-10-25T23:29:02.086Z,12.40
2022-10-25T23:31:29.681Z,9.82
2022-10-25T23:33:58.396Z,9.43
2022-10-25T23:36:27.524Z,10.80
2022-10-25T23:38:55.817Z,11.30
2022-10-25T23:41:23.304Z,11.80
2022-10-25T23:43:50.187Z,11.80
2022-10-25T23:46:17.092Z,12.40
2022-10-25T23:48:43.870Z,12.98
2022-10-25T23:51:13.322Z,11.27
2022-10-25T23:53:40.704Z,12.73
2022-10-25T23:56:09.320Z,13.07
2022-10-25T23:58:36.606Z,12.80
